Time;durP1;ratioP1;P1;durP2;ratioP2;P2;SDS_P1;SDS_P2;PMS_P1;PMS_P2;Temp;Humidity;BMP_temperature;BMP_pressure;BME280_temperature;BME280_humidity;BME280_pressure;Samples;Min_cycle;Max_cycle;Signal;HPM_P1;HPM_P2
2021/03/07 00:02:24;;;;;;;25.80;15.57;;;;;;;;;;5036419;28;20189;-67
2021/03/07 00:04:50;;;;;;;29.53;16.17;;;;;;;;;;5025006;28;20205;-67
2021/03/07 00:07:15;;;;;;;25.97;15.20;;;;;;;;;;5034286;28;20192;-68
2021/03/07 00:09:41;;;;;;;30.33;14.87;;;;;;;;;;5025963;28;20213;-67
2021/03/07 00:12:06;;;;;;;27.20;15.83;;;;;;;;;;5033801;28;20267;-67
2021/03/07 00:14:32;;;;;;;27.47;14.93;;;;;;;;;;5024274;28;20200;-67
2021/03/07 00:16:57;;;;;;;27.57;15.37;;;;;;;;;;5034649;28;20212;-68
2021/03/07 00:19:23;;;;;;;26.73;16.47;;;;;;;;;;5032819;28;20186;-68
2021/03/07 00:21:48;;;;;;;27.60;16.60;;;;;;;;;;5025504;28;20209;-68
2021/03/07 00:24:13;;;;;;;28.37;16.27;;;;;;;;;;5035244;28;20254;-68
2021/03/07 00:26:39;;;;;;;27.30;16.27;;;;;;;;;;5025621;28;20546;-67
2021/03/07 00:29:05;;;;;;;31.00;17.53;;;;;;;;;;5037995;28;20185;-67
2021/03/07 00:31:30;;;;;;;31.30;18.77;;;;;;;;;;5022052;28;20182;-67
2021/03/07 00:33:55;;;;;;;31.30;17.70;;;;;;;;;;5033969;28;20250;-68
2021/03/07 00:36:21;;;;;;;35.33;20.60;;;;;;;;;;5023778;28;20200;-68
2021/03/07 00:38:46;;;;;;;42.63;23.83;;;;;;;;;;5032046;28;21147;-68
2021/03/07 00:41:12;;;;;;;47.67;26.77;;;;;;;;;;5023819;28;20296;-68
2021/03/07 00:43:38;;;;;;;44.53;25.43;;;;;;;;;;5036353;28;20310;-67
2021/03/07 00:46:05;;;;;;;41.17;23.20;;;;;;;;;;5023444;28;20181;-68
2021/03/07 00:48:30;;;;;;;44.03;22.53;;;;;;;;;;5035094;28;20200;-68
2021/03/07 00:50:56;;;;;;;36.40;21.20;;;;;;;;;;5031067;28;20174;-68
2021/03/07 00:53:21;;;;;;;35.87;21.73;;;;;;;;;;5027952;28;20232;-68
2021/03/07 00:55:46;;;;;;;34.47;19.07;;;;;;;;;;5031416;28;20228;-68
2021/03/07 00:58:12;;;;;;;33.43;17.57;;;;;;;;;;5026615;28;20194;-68
2021/03/07 01:00:37;;;;;;;31.80;17.77;;;;;;;;;;5031122;28;20243;-68
2021/03/07 01:03:03;;;;;;;29.03;16.40;;;;;;;;;;5027164;28;20189;-68
2021/03/07 01:05:29;;;;;;;29.77;17.43;;;;;;;;;;5032220;28;20205;-68
2021/03/07 01:07:55;;;;;;;30.00;16.20;;;;;;;;;;5024970;28;20783;-68
2021/03/07 01:10:34;;;;;;;28.30;16.93;;;;;;;;;;5031506;28;20186;-68
2021/03/07 01:13:00;;;;;;;26.43;17.17;;;;;;;;;;5024842;28;20204;-68
2021/03/07 01:15:28;;;;;;;44.13;22.37;;;;;;;;;;5028306;28;20569;-68
2021/03/07 01:17:55;;;;;;;42.07;21.80;;;;;;;;;;5025742;28;20197;-68
2021/03/07 01:20:21;;;;;;;43.23;22.47;;;;;;;;;;5031469;28;20201;-68
2021/03/07 01:22:47;;;;;;;42.60;22.80;;;;;;;;;;5033918;28;20272;-68
2021/03/07 01:25:13;;;;;;;43.67;24.90;;;;;;;;;;5024820;28;20241;-68
2021/03/07 01:27:38;;;;;;;46.23;22.70;;;;;;;;;;5033358;28;20264;-68
2021/03/07 01:30:09;;;;;;;39.90;23.00;;;;;;;;;;5022874;28;20719;-68
2021/03/07 01:32:34;;;;;;;43.43;22.60;;;;;;;;;;5033204;28;20189;-68
2021/03/07 01:35:00;;;;;;;39.60;21.83;;;;;;;;;;5025837;28;20995;-68
2021/03/07 01:37:25;;;;;;;36.20;21.07;;;;;;;;;;5033598;28;20208;-68
2021/03/07 01:39:53;;;;;;;41.77;20.37;;;;;;;;;;5021660;28;20196;-68
2021/03/07 01:42:19;;;;;;;34.13;19.07;;;;;;;;;;5032713;28;20555;-68
2021/03/07 01:44:44;;;;;;;41.90;20.93;;;;;;;;;;5023734;28;20185;-68
2021/03/07 01:47:10;;;;;;;41.73;22.37;;;;;;;;;;5030824;28;20265;-68
2021/03/07 01:49:35;;;;;;;36.17;20.10;;;;;;;;;;5022218;28;20200;-68
2021/03/07 01:52:01;;;;;;;40.43;21.87;;;;;;;;;;5035531;28;20222;-67
2021/03/07 01:54:26;;;;;;;42.10;21.33;;;;;;;;;;5024850;28;20212;-68
2021/03/07 01:56:53;;;;;;;39.87;20.07;;;;;;;;;;5032499;28;20947;-67
2021/03/07 01:59:24;;;;;;;37.77;20.43;;;;;;;;;;5032772;28;20247;-71
2021/03/07 02:01:50;;;;;;;42.73;20.27;;;;;;;;;;5022504;28;20232;-68
2021/03/07 02:04:15;;;;;;;43.90;22.07;;;;;;;;;;5032913;28;20213;-68
2021/03/07 02:06:41;;;;;;;40.37;21.23;;;;;;;;;;5018738;28;20978;-68
2021/03/07 02:09:07;;;;;;;46.43;22.57;;;;;;;;;;5034398;28;20648;-68
2021/03/07 02:11:35;;;;;;;45.50;22.30;;;;;;;;;;5022332;28;20186;-67
2021/03/07 02:14:01;;;;;;;42.33;20.97;;;;;;;;;;5031989;28;20648;-68
2021/03/07 02:16:26;;;;;;;42.83;21.03;;;;;;;;;;5023120;28;20205;-68
2021/03/07 02:18:54;;;;;;;44.00;22.07;;;;;;;;;;5033994;28;20207;-68
2021/03/07 02:21:28;;;;;;;50.93;24.73;;;;;;;;;;5024697;28;20209;-68
2021/03/07 02:24:09;;;;;;;45.03;21.63;;;;;;;;;;5033749;28;20193;-68
2021/03/07 02:26:45;;;;;;;45.23;22.00;;;;;;;;;;5024459;28;22456;-68
2021/03/07 02:29:12;;;;;;;43.57;21.80;;;;;;;;;;5032627;28;20189;-68
2021/03/07 02:31:44;;;;;;;46.97;22.07;;;;;;;;;;5023385;28;20552;-68
2021/03/07 02:34:32;;;;;;;48.73;21.43;;;;;;;;;;5034488;28;20367;-68
2021/03/07 02:37:00;;;;;;;44.47;20.97;;;;;;;;;;5025476;28;20219;-68
2021/03/07 02:39:31;;;;;;;45.30;20.43;;;;;;;;;;5035876;28;20205;-68
2021/03/07 02:42:04;;;;;;;51.00;21.00;;;;;;;;;;5032830;28;20233;-68
2021/03/07 02:44:33;;;;;;;45.20;20.80;;;;;;;;;;5035051;28;21761;-68
2021/03/07 02:47:00;;;;;;;44.20;20.37;;;;;;;;;;5034356;28;20512;-68
2021/03/07 02:49:26;;;;;;;41.27;20.47;;;;;;;;;;5025255;28;20266;-68
2021/03/07 02:51:53;;;;;;;39.97;20.80;;;;;;;;;;5036536;28;20252;-68
2021/03/07 02:54:20;;;;;;;41.27;19.97;;;;;;;;;;5026086;28;20268;-68
2021/03/07 02:56:49;;;;;;;36.43;19.40;;;;;;;;;;5036302;28;20173;-69
2021/03/07 02:59:16;;;;;;;44.37;20.80;;;;;;;;;;5026791;28;20197;-68
2021/03/07 03:01:43;;;;;;;43.73;20.40;;;;;;;;;;5035388;28;20229;-68
2021/03/07 03:04:09;;;;;;;39.10;20.07;;;;;;;;;;5029879;28;20213;-68
2021/03/07 03:06:41;;;;;;;41.87;20.33;;;;;;;;;;5032787;28;20196;-68
2021/03/07 03:09:07;;;;;;;40.43;20.17;;;;;;;;;;5026334;28;20752;-68
2021/03/07 03:11:37;;;;;;;40.97;20.90;;;;;;;;;;5035536;28;20183;-68
2021/03/07 03:14:05;;;;;;;44.37;20.17;;;;;;;;;;5030227;28;20625;-68
2021/03/07 03:16:32;;;;;;;35.00;17.90;;;;;;;;;;5036137;28;20215;-68
2021/03/07 03:18:59;;;;;;;37.27;18.90;;;;;;;;;;5031698;28;20192;-68
2021/03/07 03:21:25;;;;;;;36.23;18.47;;;;;;;;;;5036354;28;20201;-68
2021/03/07 03:23:51;;;;;;;37.37;18.93;;;;;;;;;;5030717;28;20228;-68
2021/03/07 03:26:19;;;;;;;39.67;19.70;;;;;;;;;;5025036;28;20268;-68
2021/03/07 03:28:45;;;;;;;34.67;17.37;;;;;;;;;;5032582;28;20268;-68
2021/03/07 03:31:10;;;;;;;37.27;17.17;;;;;;;;;;5025998;28;20638;-68
2021/03/07 03:33:36;;;;;;;40.53;19.00;;;;;;;;;;5033032;28;20186;-68
2021/03/07 03:36:01;;;;;;;38.90;18.93;;;;;;;;;;5027180;28;20202;-68
2021/03/07 03:38:55;;;;;;;38.83;19.37;;;;;;;;;;5035590;28;20197;-68
2021/03/07 03:41:22;;;;;;;34.67;17.47;;;;;;;;;;5024394;28;20221;-68
2021/03/07 03:43:51;;;;;;;37.13;17.00;;;;;;;;;;5034392;28;20204;-68
2021/03/07 03:46:17;;;;;;;33.77;18.07;;;;;;;;;;5022890;28;20198;-68
2021/03/07 03:48:50;;;;;;;36.37;17.37;;;;;;;;;;5033077;28;20282;-68
2021/03/07 03:51:18;;;;;;;32.90;17.07;;;;;;;;;;5022156;28;20269;-68
2021/03/07 03:53:45;;;;;;;33.67;16.97;;;;;;;;;;5032119;28;20676;-68
2021/03/07 03:56:12;;;;;;;38.47;17.30;;;;;;;;;;5019308;28;20518;-68
2021/03/07 03:58:40;;;;;;;33.33;17.40;;;;;;;;;;5033156;28;20654;-68
2021/03/07 04:01:07;;;;;;;31.33;16.53;;;;;;;;;;5030716;28;20224;-68
2021/03/07 04:03:34;;;;;;;32.90;17.47;;;;;;;;;;5025270;28;20307;-68
2021/03/07 04:06:00;;;;;;;33.97;16.83;;;;;;;;;;5032635;28;20186;-68
2021/03/07 04:08:25;;;;;;;33.90;16.10;;;;;;;;;;5022408;28;20196;-68
2021/03/07 04:10:52;;;;;;;30.53;16.83;;;;;;;;;;5032193;28;20190;-68
2021/03/07 04:13:19;;;;;;;34.17;17.07;;;;;;;;;;5024464;28;20279;-68
2021/03/07 04:15:45;;;;;;;27.97;15.07;;;;;;;;;;5033932;28;20259;-68
2021/03/07 04:18:14;;;;;;;35.10;15.57;;;;;;;;;;5023558;28;20193;-68
2021/03/07 04:20:41;;;;;;;32.80;15.73;;;;;;;;;;5029370;28;20209;-68
2021/03/07 04:23:07;;;;;;;31.73;15.47;;;;;;;;;;5022940;28;20615;-68
2021/03/07 04:25:32;;;;;;;26.07;14.67;;;;;;;;;;5030877;28;20264;-68
2021/03/07 04:27:58;;;;;;;28.13;14.43;;;;;;;;;;5024739;28;20845;-68
2021/03/07 04:30:24;;;;;;;25.73;14.13;;;;;;;;;;5032750;28;20185;-68
2021/03/07 04:32:52;;;;;;;29.73;15.30;;;;;;;;;;5023813;28;20552;-68
2021/03/07 04:35:18;;;;;;;26.53;14.57;;;;;;;;;;5033554;28;20190;-68
2021/03/07 04:37:44;;;;;;;25.73;14.87;;;;;;;;;;5030833;28;20198;-68
2021/03/07 04:40:09;;;;;;;27.40;14.53;;;;;;;;;;5022737;28;20224;-68
2021/03/07 04:42:35;;;;;;;26.97;14.90;;;;;;;;;;5031106;28;20987;-68
2021/03/07 04:45:05;;;;;;;27.23;14.77;;;;;;;;;;5024811;28;20300;-68
2021/03/07 04:47:30;;;;;;;28.07;14.37;;;;;;;;;;5031293;28;20189;-68
2021/03/07 04:49:55;;;;;;;29.60;14.97;;;;;;;;;;5021936;28;20289;-68
2021/03/07 04:52:21;;;;;;;29.10;14.97;;;;;;;;;;5035768;28;20255;-68
2021/03/07 04:54:46;;;;;;;24.30;14.67;;;;;;;;;;5020363;28;20221;-68
2021/03/07 04:57:12;;;;;;;22.43;13.33;;;;;;;;;;5031552;28;20193;-68
2021/03/07 04:59:37;;;;;;;23.53;13.57;;;;;;;;;;5021839;28;20190;-68
2021/03/07 05:02:02;;;;;;;28.10;14.43;;;;;;;;;;5034972;28;20226;-68
2021/03/07 05:04:28;;;;;;;25.63;13.83;;;;;;;;;;5025352;28;20220;-68
2021/03/07 05:06:53;;;;;;;22.20;12.40;;;;;;;;;;5026099;28;20189;-68
2021/03/07 05:09:18;;;;;;;24.37;13.17;;;;;;;;;;5029454;28;20209;-68
2021/03/07 05:11:44;;;;;;;25.97;13.93;;;;;;;;;;5026864;28;20221;-68
2021/03/07 05:14:10;;;;;;;22.53;12.90;;;;;;;;;;5028184;28;20202;-68
2021/03/07 05:16:35;;;;;;;25.73;13.33;;;;;;;;;;5022523;28;20215;-68
2021/03/07 05:19:02;;;;;;;24.93;13.80;;;;;;;;;;5030352;28;20204;-68
2021/03/07 05:21:28;;;;;;;22.73;13.17;;;;;;;;;;5026840;28;20221;-68
2021/03/07 05:23:56;;;;;;;22.20;13.20;;;;;;;;;;5032376;28;20197;-68
2021/03/07 05:26:22;;;;;;;21.17;13.10;;;;;;;;;;5023771;28;20251;-68
2021/03/07 05:28:47;;;;;;;20.47;12.23;;;;;;;;;;5030380;28;20201;-68
2021/03/07 05:31:13;;;;;;;23.13;11.93;;;;;;;;;;5031854;28;20221;-68
2021/03/07 05:33:38;;;;;;;22.50;12.33;;;;;;;;;;5031836;28;20235;-68
2021/03/07 05:36:04;;;;;;;19.37;11.87;;;;;;;;;;5024325;28;20196;-69
2021/03/07 05:38:29;;;;;;;18.27;11.50;;;;;;;;;;5030171;28;20219;-68
2021/03/07 05:40:55;;;;;;;19.40;12.33;;;;;;;;;;5030916;28;20251;-68
2021/03/07 05:43:22;;;;;;;25.10;12.87;;;;;;;;;;5020764;28;20278;-68
2021/03/07 05:45:48;;;;;;;18.50;11.87;;;;;;;;;;5029751;28;20641;-68
2021/03/07 05:48:13;;;;;;;22.77;12.50;;;;;;;;;;5023078;28;20197;-68
2021/03/07 05:50:38;;;;;;;22.93;11.93;;;;;;;;;;5028078;28;20661;-68
2021/03/07 05:53:04;;;;;;;19.60;10.73;;;;;;;;;;5021215;28;20189;-68
2021/03/07 05:55:29;;;;;;;22.50;12.10;;;;;;;;;;5029265;28;20613;-68
2021/03/07 05:57:59;;;;;;;21.80;12.53;;;;;;;;;;5021852;28;20178;-69
2021/03/07 06:00:25;;;;;;;19.70;11.27;;;;;;;;;;5026233;28;20205;-68
2021/03/07 06:02:50;;;;;;;19.73;11.47;;;;;;;;;;5019205;28;20990;-68
2021/03/07 06:05:16;;;;;;;22.20;12.67;;;;;;;;;;5033461;28;20201;-68
2021/03/07 06:07:43;;;;;;;19.07;12.17;;;;;;;;;;5026643;28;20189;-68
2021/03/07 06:10:18;;;;;;;21.13;12.00;;;;;;;;;;5031733;28;20185;-68
2021/03/07 06:13:05;;;;;;;20.97;12.17;;;;;;;;;;5034912;28;20200;-68
2021/03/07 06:15:31;;;;;;;18.13;11.23;;;;;;;;;;5046001;28;20193;-68
2021/03/07 06:17:57;;;;;;;20.70;12.00;;;;;;;;;;5036236;28;20674;-68
2021/03/07 06:20:28;;;;;;;22.50;12.60;;;;;;;;;;5026147;28;20210;-68
2021/03/07 06:22:59;;;;;;;21.40;12.97;;;;;;;;;;5033918;28;20217;-68
2021/03/07 06:25:25;;;;;;;22.73;13.17;;;;;;;;;;5023585;28;20193;-68
2021/03/07 06:27:51;;;;;;;18.63;11.73;;;;;;;;;;5032168;28;20216;-68
2021/03/07 06:30:19;;;;;;;20.23;12.47;;;;;;;;;;5025622;28;20229;-68
2021/03/07 06:32:53;;;;;;;21.30;11.97;;;;;;;;;;5032261;28;20189;-68
2021/03/07 06:35:33;;;;;;;20.07;12.30;;;;;;;;;;5026544;28;20189;-68
2021/03/07 06:38:09;;;;;;;16.63;11.10;;;;;;;;;;5032410;28;20193;-68
2021/03/07 06:40:38;;;;;;;19.30;11.63;;;;;;;;;;5024831;28;20211;-68
2021/03/07 06:43:06;;;;;;;21.40;11.70;;;;;;;;;;5032904;28;21597;-68
2021/03/07 06:45:40;;;;;;;17.37;11.37;;;;;;;;;;5029322;28;20189;-68
2021/03/07 06:48:06;;;;;;;18.27;11.33;;;;;;;;;;5035212;28;20225;-68
2021/03/07 06:50:31;;;;;;;22.70;11.27;;;;;;;;;;5028280;28;20244;-69
2021/03/07 06:52:58;;;;;;;15.83;9.93;;;;;;;;;;5031434;28;20689;-68
2021/03/07 06:55:42;;;;;;;12.67;8.97;;;;;;;;;;5027019;28;21431;-68
2021/03/07 06:58:17;;;;;;;12.60;9.40;;;;;;;;;;5034078;28;20221;-68
2021/03/07 07:00:44;;;;;;;14.23;8.67;;;;;;;;;;5026844;28;20216;-69
2021/03/07 07:03:11;;;;;;;15.37;9.10;;;;;;;;;;5033476;28;20759;-68
2021/03/07 07:05:48;;;;;;;12.97;8.97;;;;;;;;;;4335047;28;10001044;-68
2021/03/07 07:08:15;;;;;;;13.37;8.60;;;;;;;;;;5036852;28;20455;-69
2021/03/07 07:10:56;;;;;;;14.77;9.10;;;;;;;;;;5036622;28;20236;-68
2021/03/07 07:13:27;;;;;;;14.13;9.63;;;;;;;;;;5030481;28;20213;-68
2021/03/07 07:16:02;;;;;;;15.53;8.70;;;;;;;;;;5034968;28;20553;-68
2021/03/07 07:18:29;;;;;;;11.27;8.67;;;;;;;;;;5021466;28;20239;-68
2021/03/07 07:20:56;;;;;;;10.67;7.97;;;;;;;;;;5034373;28;20205;-68
2021/03/07 07:23:22;;;;;;;14.30;8.60;;;;;;;;;;5025981;28;20280;-67
2021/03/07 07:25:47;;;;;;;13.57;8.03;;;;;;;;;;5033104;28;20231;-69
2021/03/07 07:28:14;;;;;;;13.20;8.93;;;;;;;;;;5023858;28;20641;-68
2021/03/07 07:30:40;;;;;;;14.80;9.33;;;;;;;;;;5031132;28;20185;-68
2021/03/07 07:33:09;;;;;;;16.50;9.50;;;;;;;;;;5030790;28;20190;-68
2021/03/07 07:35:37;;;;;;;14.70;8.83;;;;;;;;;;5040782;28;20218;-69
2021/03/07 07:38:04;;;;;;;15.70;8.40;;;;;;;;;;5026523;28;20201;-68
2021/03/07 07:40:37;;;;;;;16.53;8.93;;;;;;;;;;5045533;28;20324;-68
2021/03/07 07:43:03;;;;;;;14.97;9.63;;;;;;;;;;5028984;28;20229;-68
2021/03/07 07:45:29;;;;;;;12.33;8.80;;;;;;;;;;5038864;28;20212;-68
2021/03/07 07:47:57;;;;;;;16.43;8.87;;;;;;;;;;5034979;28;20272;-68
2021/03/07 07:50:30;;;;;;;16.37;8.77;;;;;;;;;;5032519;28;20275;-68
2021/03/07 07:53:25;;;;;;;13.23;8.37;;;;;;;;;;5035203;28;20206;-68
2021/03/07 07:55:56;;;;;;;14.77;8.77;;;;;;;;;;5039901;28;20643;-68
2021/03/07 07:58:34;;;;;;;9.60;6.93;;;;;;;;;;5035202;28;20527;-68
2021/03/07 08:01:03;;;;;;;14.53;8.40;;;;;;;;;;5034540;28;20216;-68
2021/03/07 08:03:41;;;;;;;15.40;7.93;;;;;;;;;;5033230;28;20196;-68
2021/03/07 08:06:09;;;;;;;11.13;7.83;;;;;;;;;;5030662;28;20699;-68
2021/03/07 08:08:39;;;;;;;13.87;7.93;;;;;;;;;;5032394;28;20200;-67
2021/03/07 08:11:06;;;;;;;10.93;7.43;;;;;;;;;;5031065;28;20593;-67
2021/03/07 08:13:42;;;;;;;12.10;7.47;;;;;;;;;;5037689;28;20556;-68
2021/03/07 08:16:08;;;;;;;10.23;7.20;;;;;;;;;;5031177;28;20185;-67
2021/03/07 08:19:03;;;;;;;13.93;8.07;;;;;;;;;;5035353;28;20235;-68
2021/03/07 08:21:49;;;;;;;12.10;7.70;;;;;;;;;;5035559;28;20614;-68
2021/03/07 08:24:14;;;;;;;13.47;7.17;;;;;;;;;;5035196;28;20185;-68
2021/03/07 08:26:42;;;;;;;14.33;7.43;;;;;;;;;;5026076;28;20657;-68
2021/03/07 08:29:46;;;;;;;13.50;7.70;;;;;;;;;;5037430;28;20174;-68
2021/03/07 08:32:31;;;;;;;12.97;7.40;;;;;;;;;;5024511;28;20549;-68
2021/03/07 08:34:59;;;;;;;12.83;7.30;;;;;;;;;;5033102;28;20228;-68
2021/03/07 08:37:26;;;;;;;14.60;8.00;;;;;;;;;;5024704;28;20280;-68
2021/03/07 08:40:29;;;;;;;12.77;8.03;;;;;;;;;;5042643;28;20544;-68
2021/03/07 08:43:21;;;;;;;10.20;6.97;;;;;;;;;;5026864;28;20320;-68
2021/03/07 08:46:13;;;;;;;13.47;7.03;;;;;;;;;;5035123;28;20197;-68
2021/03/07 08:48:43;;;;;;;10.43;6.47;;;;;;;;;;5030269;28;20532;-69
2021/03/07 08:51:10;;;;;;;12.07;6.90;;;;;;;;;;5025671;28;20201;-69
2021/03/07 08:53:37;;;;;;;10.53;6.00;;;;;;;;;;5030719;28;20189;-69
2021/03/07 08:56:04;;;;;;;10.33;5.73;;;;;;;;;;5033327;28;20965;-69
2021/03/07 08:58:29;;;;;;;9.43;6.50;;;;;;;;;;5022784;28;20232;-69
2021/03/07 09:00:57;;;;;;;11.90;6.50;;;;;;;;;;5030691;28;20298;-70
2021/03/07 09:03:24;;;;;;;11.07;5.90;;;;;;;;;;5022809;28;20196;-70
2021/03/07 09:05:50;;;;;;;8.43;6.10;;;;;;;;;;5027653;28;20205;-70
2021/03/07 09:08:20;;;;;;;7.90;5.77;;;;;;;;;;5016096;28;20198;-70
2021/03/07 09:10:48;;;;;;;13.63;5.93;;;;;;;;;;5031950;28;20574;-70
2021/03/07 09:13:20;;;;;;;10.33;5.70;;;;;;;;;;5024287;28;20255;-70
2021/03/07 09:15:55;;;;;;;11.63;6.40;;;;;;;;;;5029037;28;20194;-70
2021/03/07 09:18:29;;;;;;;10.73;5.77;;;;;;;;;;5023083;28;20555;-70
2021/03/07 09:20:57;;;;;;;7.63;4.83;;;;;;;;;;5032004;28;20572;-70
2021/03/07 09:23:36;;;;;;;7.80;5.00;;;;;;;;;;5020893;28;20589;-70
2021/03/07 09:26:05;;;;;;;9.57;4.80;;;;;;;;;;5032036;28;20196;-70
2021/03/07 09:28:38;;;;;;;7.30;4.23;;;;;;;;;;5017230;28;20289;-70
2021/03/07 09:31:10;;;;;;;7.23;3.97;;;;;;;;;;5030097;28;20207;-70
2021/03/07 09:33:36;;;;;;;6.03;3.70;;;;;;;;;;5020537;28;20272;-69
2021/03/07 09:36:10;;;;;;;5.03;3.57;;;;;;;;;;5029083;28;20201;-69
2021/03/07 09:38:58;;;;;;;6.53;4.07;;;;;;;;;;5029275;28;20296;-69
2021/03/07 09:41:31;;;;;;;8.17;3.60;;;;;;;;;;5029095;28;20224;-69
2021/03/07 09:44:05;;;;;;;5.30;3.30;;;;;;;;;;5023793;28;20178;-70
2021/03/07 09:46:32;;;;;;;4.93;3.10;;;;;;;;;;5028964;28;20661;-69
2021/03/07 09:49:03;;;;;;;7.27;3.17;;;;;;;;;;5031248;28;20537;-69
2021/03/07 09:51:31;;;;;;;5.97;3.30;;;;;;;;;;5025115;28;20576;-69
2021/03/07 09:53:57;;;;;;;4.87;3.13;;;;;;;;;;5032080;28;20272;-69
2021/03/07 09:56:25;;;;;;;5.30;3.40;;;;;;;;;;5024134;28;20193;-69
2021/03/07 09:58:50;;;;;;;6.73;3.47;;;;;;;;;;5033012;28;20200;-70
2021/03/07 10:01:16;;;;;;;5.13;2.80;;;;;;;;;;5023439;28;20419;-69
2021/03/07 10:03:41;;;;;;;7.57;2.90;;;;;;;;;;5032442;28;20220;-69
2021/03/07 10:06:17;;;;;;;6.27;3.20;;;;;;;;;;5024549;28;20564;-70
2021/03/07 10:08:45;;;;;;;4.83;3.00;;;;;;;;;;5032250;28;20184;-69
2021/03/07 10:11:21;;;;;;;5.43;2.73;;;;;;;;;;5023196;28;20184;-70
2021/03/07 10:14:01;;;;;;;6.10;2.87;;;;;;;;;;5032652;28;20277;-69
2021/03/07 10:16:29;;;;;;;3.40;2.20;;;;;;;;;;5023086;28;20177;-70
2021/03/07 10:19:12;;;;;;;7.20;2.60;;;;;;;;;;5034941;28;20659;-70
2021/03/07 10:21:38;;;;;;;6.17;2.93;;;;;;;;;;5022180;28;20247;-69
2021/03/07 10:24:17;;;;;;;5.63;3.00;;;;;;;;;;5032668;28;20696;-70
2021/03/07 10:26:46;;;;;;;4.17;2.30;;;;;;;;;;5022426;28;20327;-70
2021/03/07 10:29:26;;;;;;;4.80;2.77;;;;;;;;;;5033231;28;20521;-70
2021/03/07 10:32:16;;;;;;;4.87;2.47;;;;;;;;;;5031875;28;20184;-70
2021/03/07 10:34:43;;;;;;;3.07;2.30;;;;;;;;;;5032371;28;20598;-70
2021/03/07 10:37:29;;;;;;;3.40;1.90;;;;;;;;;;5024069;28;20274;-70
2021/03/07 10:39:55;;;;;;;5.27;1.83;;;;;;;;;;5031786;28;20274;-70
2021/03/07 10:42:20;;;;;;;7.17;2.67;;;;;;;;;;5022801;28;21939;-70
2021/03/07 10:44:46;;;;;;;5.17;2.50;;;;;;;;;;5031747;28;20225;-70
2021/03/07 10:47:19;;;;;;;3.53;1.77;;;;;;;;;;5032962;28;20197;-70
2021/03/07 10:49:49;;;;;;;3.23;1.80;;;;;;;;;;5028702;28;20197;-70
2021/03/07 10:52:15;;;;;;;6.77;2.10;;;;;;;;;;5032226;28;20177;-69
2021/03/07 10:54:41;;;;;;;4.67;1.70;;;;;;;;;;5023718;28;20311;-69
2021/03/07 10:57:08;;;;;;;3.97;1.50;;;;;;;;;;5033656;28;20288;-69
2021/03/07 10:59:34;;;;;;;5.70;1.70;;;;;;;;;;5028608;28;20193;-69
2021/03/07 11:01:59;;;;;;;4.40;1.83;;;;;;;;;;5035753;28;20217;-70
2021/03/07 11:04:24;;;;;;;2.43;1.57;;;;;;;;;;5029869;28;20221;-70
2021/03/07 11:06:50;;;;;;;3.43;1.70;;;;;;;;;;5035326;28;20203;-70
2021/03/07 11:09:15;;;;;;;3.07;1.70;;;;;;;;;;5027917;28;20197;-70
2021/03/07 11:11:43;;;;;;;4.43;1.60;;;;;;;;;;5031194;28;20186;-70
2021/03/07 11:14:08;;;;;;;3.80;1.60;;;;;;;;;;5024568;28;21238;-70
2021/03/07 11:16:33;;;;;;;6.30;1.80;;;;;;;;;;5033505;28;20653;-70
2021/03/07 11:18:59;;;;;;;2.70;1.50;;;;;;;;;;5035321;28;20656;-70
2021/03/07 11:21:24;;;;;;;2.87;1.70;;;;;;;;;;5026369;28;20210;-70
2021/03/07 11:23:49;;;;;;;2.53;1.60;;;;;;;;;;5035331;28;20621;-68
2021/03/07 11:26:15;;;;;;;5.43;1.73;;;;;;;;;;5022746;28;20551;-68
2021/03/07 11:28:40;;;;;;;4.80;1.87;;;;;;;;;;5030163;28;20280;-69
2021/03/07 11:31:05;;;;;;;3.87;1.90;;;;;;;;;;5024589;28;20236;-69
2021/03/07 11:33:31;;;;;;;3.13;1.63;;;;;;;;;;5036692;28;20193;-69
2021/03/07 11:35:56;;;;;;;4.33;2.13;;;;;;;;;;5027234;28;20250;-69
2021/03/07 11:38:21;;;;;;;3.43;2.13;;;;;;;;;;5035333;28;20275;-69
2021/03/07 11:40:47;;;;;;;5.27;2.17;;;;;;;;;;5023313;28;20288;-69
2021/03/07 11:43:13;;;;;;;3.50;1.90;;;;;;;;;;5035776;28;20240;-69
2021/03/07 11:45:38;;;;;;;5.63;1.97;;;;;;;;;;5026025;28;20189;-69
2021/03/07 11:48:04;;;;;;;5.97;2.63;;;;;;;;;;5032592;28;20189;-69
2021/03/07 11:50:29;;;;;;;5.27;2.37;;;;;;;;;;5031055;28;20204;-69
2021/03/07 11:52:55;;;;;;;7.60;2.50;;;;;;;;;;5022854;28;20202;-69
2021/03/07 11:55:20;;;;;;;5.77;2.40;;;;;;;;;;5032064;28;20188;-69
2021/03/07 11:57:45;;;;;;;9.57;5.73;;;;;;;;;;5023714;28;20193;-69
2021/03/07 12:00:12;;;;;;;4.93;2.97;;;;;;;;;;5032294;28;20201;-69
2021/03/07 12:02:37;;;;;;;23.10;9.67;;;;;;;;;;5022396;28;20228;-69
2021/03/07 12:05:05;;;;;;;5.57;2.70;;;;;;;;;;5033283;28;20659;-69
2021/03/07 12:07:30;;;;;;;50.67;24.90;;;;;;;;;;5022665;28;20889;-69
2021/03/07 12:09:56;;;;;;;66.77;31.40;;;;;;;;;;5032029;28;21406;-69
2021/03/07 12:12:21;;;;;;;4.80;3.90;;;;;;;;;;5022789;28;20244;-69
2021/03/07 12:14:46;;;;;;;5.60;2.80;;;;;;;;;;5029472;28;20262;-69
2021/03/07 12:17:12;;;;;;;6.17;2.70;;;;;;;;;;5029432;28;20615;-69
2021/03/07 12:19:37;;;;;;;8.27;2.70;;;;;;;;;;5020590;28;20657;-69
2021/03/07 12:22:03;;;;;;;6.80;2.80;;;;;;;;;;5031005;28;20214;-69
2021/03/07 12:24:29;;;;;;;5.47;2.87;;;;;;;;;;5020532;28;20637;-69
2021/03/07 12:26:55;;;;;;;4.97;3.03;;;;;;;;;;5029776;28;20208;-69
2021/03/07 12:29:21;;;;;;;6.20;2.63;;;;;;;;;;5023636;28;20563;-69
2021/03/07 12:31:46;;;;;;;4.97;2.90;;;;;;;;;;5027375;28;20178;-69
2021/03/07 12:34:11;;;;;;;5.40;2.77;;;;;;;;;;5022429;28;20189;-69
2021/03/07 12:36:37;;;;;;;5.27;2.47;;;;;;;;;;5028585;28;20256;-69
2021/03/07 12:39:03;;;;;;;6.40;2.63;;;;;;;;;;5020248;28;20190;-69
2021/03/07 12:41:28;;;;;;;4.80;2.67;;;;;;;;;;5028213;28;20213;-69
2021/03/07 12:43:53;;;;;;;5.63;2.77;;;;;;;;;;5023441;28;20274;-69
2021/03/07 12:46:19;;;;;;;4.37;2.40;;;;;;;;;;5031081;28;20190;-69
2021/03/07 12:48:44;;;;;;;3.53;2.23;;;;;;;;;;5028363;28;20869;-69
2021/03/07 12:51:09;;;;;;;4.27;2.60;;;;;;;;;;5022023;28;20196;-69
2021/03/07 12:53:35;;;;;;;5.50;3.03;;;;;;;;;;5028150;28;20250;-70
2021/03/07 12:56:00;;;;;;;3.43;2.37;;;;;;;;;;5017278;28;20299;-69
2021/03/07 12:58:26;;;;;;;8.07;2.90;;;;;;;;;;5029692;28;20181;-70
2021/03/07 13:00:52;;;;;;;7.23;2.63;;;;;;;;;;5017944;28;20544;-69
2021/03/07 13:03:17;;;;;;;5.23;2.70;;;;;;;;;;5020729;28;20199;-69
2021/03/07 13:05:42;;;;;;;5.03;2.73;;;;;;;;;;5017132;28;20189;-69
2021/03/07 13:08:08;;;;;;;3.63;2.33;;;;;;;;;;5031043;28;20585;-69
2021/03/07 13:10:33;;;;;;;5.27;2.60;;;;;;;;;;5019625;28;20197;-69
2021/03/07 13:12:59;;;;;;;4.63;2.80;;;;;;;;;;5030460;28;20300;-69
2021/03/07 13:15:24;;;;;;;4.23;3.10;;;;;;;;;;5019727;28;20637;-69
2021/03/07 13:17:49;;;;;;;5.53;2.80;;;;;;;;;;5031588;28;20194;-69
2021/03/07 13:20:15;;;;;;;4.20;2.93;;;;;;;;;;5029374;28;20186;-69
2021/03/07 13:22:41;;;;;;;6.73;2.97;;;;;;;;;;5024835;28;20300;-69
2021/03/07 13:25:08;;;;;;;6.47;3.23;;;;;;;;;;5032382;28;20269;-69
2021/03/07 13:27:33;;;;;;;5.93;3.40;;;;;;;;;;5023959;28;20276;-69
2021/03/07 13:29:59;;;;;;;4.13;3.10;;;;;;;;;;5033049;28;20634;-69
2021/03/07 13:32:24;;;;;;;7.33;3.90;;;;;;;;;;5023228;28;20189;-69
2021/03/07 13:34:50;;;;;;;9.03;4.70;;;;;;;;;;5028038;28;20906;-69
2021/03/07 13:37:15;;;;;;;8.20;4.30;;;;;;;;;;5019707;28;20181;-69
2021/03/07 13:39:40;;;;;;;8.73;4.10;;;;;;;;;;5032502;28;20767;-69
2021/03/07 13:42:06;;;;;;;7.20;5.13;;;;;;;;;;5023672;28;20676;-69
2021/03/07 13:44:32;;;;;;;6.90;4.50;;;;;;;;;;5030276;28;20181;-69
2021/03/07 13:46:59;;;;;;;9.33;5.30;;;;;;;;;;5029517;28;20565;-69
2021/03/07 13:49:24;;;;;;;8.17;5.33;;;;;;;;;;5029597;28;20193;-69
2021/03/07 13:51:50;;;;;;;7.87;5.30;;;;;;;;;;5029445;28;20226;-69
2021/03/07 13:54:16;;;;;;;9.70;5.20;;;;;;;;;;5026406;28;20189;-69
2021/03/07 13:56:42;;;;;;;10.40;5.47;;;;;;;;;;5029811;28;20190;-69
2021/03/07 13:59:08;;;;;;;7.47;5.57;;;;;;;;;;5023111;28;20186;-69
2021/03/07 14:01:33;;;;;;;10.17;5.93;;;;;;;;;;5031093;28;20220;-69
2021/03/07 14:03:59;;;;;;;10.30;6.17;;;;;;;;;;5023011;28;20217;-69
2021/03/07 14:06:24;;;;;;;10.10;6.20;;;;;;;;;;5034583;28;20640;-69
2021/03/07 14:08:50;;;;;;;11.00;6.73;;;;;;;;;;5029675;28;20595;-69
2021/03/07 14:11:15;;;;;;;11.00;6.60;;;;;;;;;;5033215;28;20182;-69
2021/03/07 14:13:40;;;;;;;11.43;5.70;;;;;;;;;;5021628;28;20212;-69
2021/03/07 14:16:06;;;;;;;11.87;6.60;;;;;;;;;;5032835;28;20314;-69
2021/03/07 14:18:31;;;;;;;11.83;6.93;;;;;;;;;;5035004;28;20315;-69
2021/03/07 14:20:57;;;;;;;11.50;7.03;;;;;;;;;;5019387;28;20603;-69
2021/03/07 14:23:22;;;;;;;11.33;6.63;;;;;;;;;;5032965;28;20188;-69
2021/03/07 14:25:47;;;;;;;10.03;6.60;;;;;;;;;;5024304;28;20532;-70
2021/03/07 14:28:13;;;;;;;11.53;7.10;;;;;;;;;;5032934;28;20189;-70
2021/03/07 14:30:38;;;;;;;13.97;7.13;;;;;;;;;;5026239;28;20629;-69
2021/03/07 14:33:04;;;;;;;10.53;6.83;;;;;;;;;;5041452;28;20197;-70
2021/03/07 14:35:29;;;;;;;10.17;6.40;;;;;;;;;;5030389;28;20189;-69